Pudino, Russia
Current Conditions -  °F | °C
As of 2:30 PM on Friday 31 Oct 2014 (Local Time) from UNNT Reporting Station
Overcast Overcast  
Wind Chill: 27°   Ceiling: 700
Heat Index: 36°   Visibility: 4mi
Dew Point: 34°   Wind: 13mph
Humidity: 93%   Direction: 240°WSW
Pressure: 30.18"   Gusts: NA
Location:  57.57°N, 79.44°E
Report Text: UNNT 310730Z 24006MPS 6000 OVC007 02/01 Q1022 25290150 16290150NOSIG RMK QFE756/1009
Loading
Personal Weather Stations






























Interactive Weather Map
Tropical Storm Tracking
New forecast layout! Learn more

10-Day Weather Forecast

Advertisements
Track Severe Weather on mobile